Time;durP1;ratioP1;P1;durP2;ratioP2;P2;SDS_P1;SDS_P2;PMS_P1;PMS_P2;Temp;Humidity;BMP_temperature;BMP_pressure;BME280_temperature;BME280_humidity;BME280_pressure;Samples;Min_cycle;Max_cycle;Signal;HPM_P1;HPM_P2
2022/04/02 00:02:22;;;;;;;2.03;0.43;;;;;;;;;;20844384;28;20408;-60
2022/04/02 00:12:25;;;;;;;1.02;0.50;;;;;;;;;;20844916;28;20424;-61
2022/04/02 00:22:27;;;;;;;0.90;0.43;;;;;;;;;;20843299;28;20477;-62
2022/04/02 00:32:29;;;;;;;1.70;0.40;;;;;;;;;;20842120;28;20041;-60
2022/04/02 00:42:31;;;;;;;1.95;1.15;;;;;;;;;;20842423;28;20092;-60
2022/04/02 00:52:33;;;;;;;1.25;0.50;;;;;;;;;;20839826;28;20046;-61
2022/04/02 01:02:35;;;;;;;0.85;0.40;;;;;;;;;;20839293;28;20520;-60
2022/04/02 01:12:37;;;;;;;1.05;0.50;;;;;;;;;;20839454;28;20072;-61
2022/04/02 01:22:39;;;;;;;2.92;0.50;;;;;;;;;;20839759;28;20053;-59
2022/04/02 01:32:43;;;;;;;2.50;0.70;;;;;;;;;;20838066;28;20430;-61
2022/04/02 01:42:46;;;;;;;1.52;0.55;;;;;;;;;;20837976;28;20104;-61
2022/04/02 01:52:51;;;;;;;2.35;0.40;;;;;;;;;;20835294;28;20485;-61
2022/04/02 02:03:06;;;;;;;2.58;0.40;;;;;;;;;;20834944;28;20112;-61
2022/04/02 02:13:23;;;;;;;1.25;0.50;;;;;;;;;;20833701;28;20045;-59
2022/04/02 02:23:27;;;;;;;1.10;0.50;;;;;;;;;;20833878;28;20053;-60
2022/04/02 02:43:57;;;;;;;2.55;0.50;;;;;;;;;;20833029;28;20071;-61
2022/04/02 02:54:00;;;;;;;1.08;0.40;;;;;;;;;;20831129;28;20061;-60
2022/04/02 03:04:02;;;;;;;1.08;0.40;;;;;;;;;;20831780;28;20049;-60
2022/04/02 03:14:06;;;;;;;2.42;0.43;;;;;;;;;;20831071;28;20053;-61
2022/04/02 03:24:29;;;;;;;2.97;0.47;;;;;;;;;;20830414;28;20057;-60
2022/04/02 03:34:50;;;;;;;0.98;0.40;;;;;;;;;;20829939;28;20041;-60
2022/04/02 03:45:11;;;;;;;1.90;0.35;;;6.40;45.90;;;;;;20829923;28;20057;-60
2022/04/02 03:55:22;;;;;;;1.52;0.50;;;5.10;48.90;;;;;;20828831;28;20060;-61
2022/04/02 04:05:26;;;;;;;1.65;0.40;;;5.00;49.40;;;;;;20827388;28;20085;-62
2022/04/02 04:15:28;;;;;;;3.05;0.77;;;5.00;49.70;;;;;;20828892;28;20084;-60
2022/04/02 04:25:33;;;;;;;1.15;0.50;;;4.90;50.20;;;;;;20828848;28;20096;-60
2022/04/02 04:35:34;;;;;;;1.25;0.50;;;5.00;50.90;;;;;;20841460;28;20452;-59
2022/04/02 04:45:36;;;;;;;2.05;0.60;;;4.90;51.30;;;;;;20841572;28;20201;-60
2022/04/02 04:55:37;;;;;;;3.28;0.68;;;4.80;51.90;;;;;;20840944;28;20415;-60
2022/04/02 05:05:39;;;;;;;3.70;1.05;;;4.70;51.50;;;;;;20839537;28;20057;-60
2022/04/02 05:15:42;;;;;;;2.45;0.70;;;4.70;51.70;;;;;;20839745;28;20481;-61
2022/04/02 05:25:45;;;;;;;2.05;0.80;;;4.60;52.20;;;;;;20839445;28;20049;-59
2022/04/02 05:35:46;;;;;;;1.77;0.70;;;4.50;52.40;;;;;;20837958;28;20045;-60
2022/04/02 05:45:48;;;;;;;2.28;0.65;;;4.40;52.90;;;;;;20836676;28;20057;-59
2022/04/02 05:55:50;;;;;;;29.38;10.07;;;;;;;;;;20835939;28;20049;-60
2022/04/02 06:05:53;;;;;;;1.58;0.60;;;;;;;;;;20835959;28;20065;-60
2022/04/02 06:15:55;;;;;;;1.27;0.40;;;;;;;;;;20836887;28;20119;-61
2022/04/02 06:25:57;;;;;;;0.68;0.20;;;;;;;;;;20834026;28;20057;-60
2022/04/02 06:36:00;;;;;;;0.63;0.32;;;;;;;;;;20834308;28;20132;-61
2022/04/02 06:46:02;;;;;;;1.98;0.35;;;;;;;;;;20833873;28;20111;-60
2022/04/02 06:56:04;;;;;;;0.80;0.30;;;6.50;45.50;;;;;;20831285;28;20099;-60
2022/04/02 07:06:07;;;;;;;0.50;0.20;;;5.70;46.70;;;;;;20831330;28;20057;-60
2022/04/02 07:16:09;;;;;;;1.00;0.32;;;5.90;45.90;;;;;;20831068;28;20132;-60
2022/04/02 07:26:12;;;;;;;3.13;0.50;;;6.00;45.50;;;;;;20830329;28;20053;-59
2022/04/02 07:36:43;;;;;;;0.38;0.22;;;6.30;45.00;;;;;;20831206;28;20045;-60
2022/04/02 07:46:48;;;;;;;1.38;0.40;;;6.50;44.10;;;;;;20830902;28;20080;-62
2022/04/02 07:56:54;;;;;;;1.15;0.40;;;6.90;43.90;;;;;;20829107;28;20144;-64
2022/04/02 08:06:57;;;;;;;2.30;0.38;;;7.20;42.90;;;;;;20836986;28;20057;-61
2022/04/02 08:17:00;;;;;;;3.95;0.50;;;;;;;;;;20898975;28;20162;-64
2022/04/02 08:27:12;;;;;;;2.15;0.30;;;;;;;;;;20892168;28;20469;-60
2022/04/02 08:37:32;;;;;;;1.58;0.35;;;8.80;42.30;;;;;;20904047;28;20051;-59
2022/04/02 08:47:45;;;;;;;1.10;0.30;;;8.80;41.30;;;;;;20922703;28;20148;-62
2022/04/02 08:57:53;;;;;;;2.78;0.65;;;8.70;41.30;;;;;;20922888;28;20139;-63
2022/04/02 09:07:57;;;;;;;1.75;0.43;;;9.70;39.70;;;;;;20923354;28;20469;-62
2022/04/02 09:18:07;;;;;;;0.88;0.20;;;10.30;37.40;;;;;;20920050;28;20131;-61
2022/04/02 09:28:34;;;;;;;3.70;0.73;;;10.20;37.70;;;;;;20921587;28;20447;-63
2022/04/02 09:38:54;;;;;;;1.33;0.30;;;8.80;40.30;;;;;;20919292;28;20290;-59
2022/04/02 09:49:08;;;;;;;1.50;0.40;;;9.50;39.20;;;;;;20918191;28;20110;-59
2022/04/02 09:59:46;;;;;;;0.90;0.45;;;10.90;36.00;;;;;;20915418;28;20055;-57
2022/04/02 10:09:53;;;;;;;2.30;0.40;;;9.70;37.60;;;;;;20743476;28;20104;-60
2022/04/02 10:19:57;;;;;;;2.25;0.35;;;9.40;37.10;;;;;;20732193;28;20054;-58
2022/04/02 10:30:00;;;;;;;0.68;0.30;;;9.60;36.70;;;;;;20742024;28;20148;-58
2022/04/02 10:40:05;;;;;;;1.58;0.35;;;9.50;37.50;;;;;;20832314;28;20148;-61
2022/04/02 10:50:08;;;;;;;2.30;0.30;;;9.30;36.20;;;;;;20916273;28;20575;-57
2022/04/02 11:00:10;;;;;;;1.40;0.35;;;9.90;36.90;;;;;;20912742;28;20061;-56
2022/04/02 11:10:19;;;;;;;3.42;0.28;;;10.50;35.30;;;;;;20912448;28;20064;-57
2022/04/02 11:20:22;;;;;;;1.30;0.30;;;10.50;35.00;;;;;;20924165;28;20060;-60
2022/04/02 11:30:47;;;;;;;1.55;0.30;;;10.60;32.80;;;;;;20913352;28;20059;-58
2022/04/02 11:41:04;;;;;;;1.40;0.40;;;10.40;33.30;;;;;;20916534;28;20049;-58
2022/04/02 11:51:17;;;;;;;0.88;0.20;;;10.30;33.10;;;;;;20927178;28;20053;-58
2022/04/02 12:01:23;;;;;;;4.13;1.50;;;10.10;32.20;;;;;;20924598;28;20420;-61
2022/04/02 12:11:24;;;;;;;2.03;0.30;;;10.40;30.60;;;;;;20925119;28;20048;-66
2022/04/02 12:21:37;;;;;;;2.20;0.57;;;10.20;31.40;;;;;;20925726;28;20049;-62
2022/04/02 12:31:50;;;;;;;2.88;0.50;;;10.20;32.20;;;;;;20924887;28;20454;-67
2022/04/02 12:41:51;;;;;;;1.65;0.30;;;10.40;31.90;;;;;;20924719;28;20406;-62
2022/04/02 12:52:13;;;;;;;0.68;0.38;;;10.80;31.50;;;;;;20923265;28;20436;-62
2022/04/02 13:02:20;;;;;;;2.72;0.50;;;11.10;30.20;;;;;;20922518;28;20053;-63
2022/04/02 13:12:23;;;;;;;0.80;0.38;;;11.20;30.60;;;;;;20922220;28;20382;-61
2022/04/02 13:22:27;;;;;;;1.40;0.50;;;10.80;30.30;;;;;;20921193;28;20504;-61
2022/04/02 13:32:44;;;;;;;1.58;0.30;;;11.00;30.20;;;;;;20920465;28;20049;-62
2022/04/02 13:42:56;;;;;;;2.88;0.73;;;11.10;30.90;;;;;;20919517;28;20049;-62
2022/04/02 13:53:04;;;;;;;1.45;0.52;;;11.30;30.40;;;;;;20920709;28;20390;-62
2022/04/02 14:03:07;;;;;;;1.63;0.30;;;11.20;30.90;;;;;;20917208;28;20489;-61
2022/04/02 14:13:24;;;;;;;0.77;0.50;;;11.40;30.80;;;;;;20918860;28;20500;-62
2022/04/02 14:23:38;;;;;;;1.25;0.30;;;11.60;30.50;;;;;;20916447;28;20409;-61
2022/04/02 14:34:04;;;;;;;2.55;0.50;;;11.80;30.00;;;;;;20915890;28;20059;-62
2022/04/02 14:44:39;;;;;;;3.67;0.82;;;11.60;30.30;;;;;;20916675;28;20578;-63
2022/04/02 14:54:56;;;;;;;2.95;0.50;;;11.70;29.70;;;;;;20915710;28;20056;-60
2022/04/02 15:05:17;;;;;;;1.90;0.40;;;11.70;30.20;;;;;;20916087;28;20052;-61
2022/04/02 15:15:19;;;;;;;2.47;1.05;;;11.80;33.30;;;;;;20912947;28;20081;-61
2022/04/02 15:25:25;;;;;;;3.72;0.57;;;12.50;30.00;;;;;;20912588;28;20132;-62
2022/04/02 15:35:28;;;;;;;1.70;0.65;;;12.00;29.70;;;;;;20913029;28;20087;-61
2022/04/02 15:45:33;;;;;;;5.38;0.63;;;11.80;30.30;;;;;;20912590;28;20053;-61
2022/04/02 15:55:54;;;;;;;0.73;0.35;;;11.60;31.10;;;;;;20911488;28;20128;-63
2022/04/02 16:06:25;;;;;;;2.13;0.40;;;11.50;30.90;;;;;;20911472;28;20089;-61
2022/04/02 16:16:28;;;;;;;2.55;1.17;;;11.30;31.30;;;;;;20911973;28;20523;-61
2022/04/02 16:26:30;;;;;;;1.75;0.40;;;;;;;;;;20916386;28;20072;-61
2022/04/02 16:36:33;;;;;;;1.58;0.60;;;12.20;29.40;;;;;;20926706;28;20465;-60
2022/04/02 16:46:35;;;;;;;3.30;0.60;;;11.70;29.20;;;;;;20924619;28;20083;-62
2022/04/02 16:56:37;;;;;;;2.67;0.60;;;10.70;31.00;;;;;;20923417;28;20053;-59
2022/04/02 17:06:39;;;;;;;1.10;0.52;;;10.70;31.00;;;;;;20923605;28;20088;-60
2022/04/02 17:16:42;;;;;;;5.60;0.60;;;10.40;31.30;;;;;;20923451;28;20119;-59
2022/04/02 17:26:44;;;;;;;0.75;0.32;;;10.70;30.90;;;;;;20921848;28;20045;-59
2022/04/02 17:37:01;;;;;;;0.80;0.30;;;10.10;31.60;;;;;;20919462;28;20045;-61
2022/04/02 17:47:05;;;;;;;0.98;0.45;;;9.90;31.40;;;;;;20919374;28;20052;-60
2022/04/02 17:57:06;;;;;;;3.40;0.77;;;9.70;31.70;;;;;;20918964;28;20049;-62
2022/04/02 18:07:19;;;;;;;1.88;0.63;;;9.60;31.90;;;;;;20917619;28;20074;-60
2022/04/02 18:17:21;;;;;;;2.05;0.40;;;9.50;32.10;;;;;;20917471;28;20059;-62
2022/04/02 18:27:23;;;;;;;1.88;0.40;;;9.30;33.00;;;;;;20917149;28;20045;-62
2022/04/02 18:37:24;;;;;;;3.58;0.60;;;9.30;33.30;;;;;;20916535;28;20049;-61
2022/04/02 18:47:26;;;;;;;1.50;0.52;;;9.00;34.60;;;;;;20915570;28;20378;-62
2022/04/02 18:57:29;;;;;;;1.25;0.40;;;8.90;34.90;;;;;;20914470;28;20048;-61
2022/04/02 19:07:30;;;;;;;3.15;0.60;;;8.70;35.40;;;;;;20913825;28;20076;-61
2022/04/02 19:17:33;;;;;;;1.40;0.50;;;8.50;36.40;;;;;;20913085;28;20045;-62
2022/04/02 19:27:34;;;;;;;2.05;0.70;;;8.40;37.40;;;;;;20908458;28;20045;-61
2022/04/02 19:37:38;;;;;;;1.55;0.70;;;8.60;37.70;;;;;;20911531;28;20041;-61
2022/04/02 19:47:42;;;;;;;2.28;0.90;;;8.30;38.80;;;;;;20912071;28;20056;-62
2022/04/02 19:57:43;;;;;;;2.20;0.82;;;8.20;38.40;;;;;;20908411;28;20409;-59
2022/04/02 20:07:45;;;;;;;4.85;1.25;;;8.10;39.30;;;;;;20928285;28;20448;-59
2022/04/02 20:17:47;;;;;;;2.55;1.10;;;8.00;40.40;;;;;;20926030;28;20057;-60
2022/04/02 20:27:49;;;;;;;3.70;1.83;;;7.80;40.90;;;;;;20921402;28;20057;-62
2022/04/02 20:37:51;;;;;;;2.92;0.93;;;;;;;;;;20925471;28;20049;-60
2022/04/02 20:47:53;;;;;;;1.40;0.70;;;8.10;41.60;;;;;;20924995;28;20488;-61
2022/04/02 20:57:55;;;;;;;2.85;0.88;;;8.20;41.20;;;;;;20922953;28;20135;-59
2022/04/02 21:07:56;;;;;;;5.88;1.38;;;8.20;40.50;;;;;;20924264;28;20068;-60
2022/04/02 21:17:58;;;;;;;2.85;1.05;;;;;;;;;;20922649;28;20421;-60
2022/04/02 21:28:00;;;;;;;2.58;0.63;;;;;;;;;;20921899;28;20057;-62
2022/04/02 21:38:02;;;;;;;1.33;0.82;;;;;;;;;;20921545;28;20095;-59
2022/04/02 21:48:04;;;;;;;2.58;0.88;;;;;;;;;;20920417;28;20453;-60
2022/04/02 21:58:06;;;;;;;1.20;0.80;;;;;;;;;;20919164;28;20075;-61
2022/04/02 22:08:08;;;;;;;4.05;0.90;;;;;;;;;;20918271;28;20482;-60
2022/04/02 22:18:10;;;;;;;1.77;0.40;;;;;;;;;;20917706;28;20049;-59
2022/04/02 22:28:11;;;;;;;1.45;0.70;;;8.00;40.00;;;;;;20916772;28;20052;-57
2022/04/02 22:38:13;;;;;;;1.63;0.50;;;7.00;41.70;;;;;;20916542;28;20119;-56
2022/04/02 22:48:14;;;;;;;3.60;0.60;;;;;;;;;;20915124;28;20045;-58
2022/04/02 22:58:16;;;;;;;2.10;0.55;;;;;;;;;;20914004;28;20045;-58
2022/04/02 23:08:18;;;;;;;2.90;0.30;;;;;;;;;;20914498;28;20106;-58
2022/04/02 23:18:20;;;;;;;1.67;0.50;;;7.50;41.50;;;;;;20913972;28;20056;-57
2022/04/02 23:28:21;;;;;;;2.83;0.47;;;6.80;42.60;;;;;;20911928;28;20394;-59
2022/04/02 23:38:24;;;;;;;0.80;0.30;;;6.30;43.40;;;;;;20912233;28;20401;-59
2022/04/02 23:48:25;;;;;;;2.30;0.47;;;6.30;43.60;;;;;;20911696;28;20053;-61
2022/04/02 23:58:27;;;;;;;1.98;0.65;;;6.10;44.00;;;;;;20911054;28;20120;-57
